sensor_id;sensor_type;location;lat;lon;timestamp;temperature;humidity
17146;DHT22;8688;54.444;18.444;2022-10-16T00:01:10;12.90;99.90
17146;DHT22;8688;54.444;18.444;2022-10-16T00:03:39;12.90;99.90
17146;DHT22;8688;54.444;18.444;2022-10-16T00:06:07;12.90;99.90
17146;DHT22;8688;54.444;18.444;2022-10-16T00:08:37;13.00;99.90
17146;DHT22;8688;54.444;18.444;2022-10-16T00:11:06;13.00;99.90
17146;DHT22;8688;54.444;18.444;2022-10-16T00:13:36;13.00;99.90
17146;DHT22;8688;54.444;18.444;2022-10-16T00:16:05;13.00;99.90
17146;DHT22;8688;54.444;18.444;2022-10-16T00:18:33;13.00;99.90
17146;DHT22;8688;54.444;18.444;2022-10-16T00:21:05;13.00;99.90
17146;DHT22;8688;54.444;18.444;2022-10-16T00:23:33;13.00;99.90
17146;DHT22;8688;54.444;18.444;2022-10-16T00:26:04;13.00;99.90
17146;DHT22;8688;54.444;18.444;2022-10-16T00:28:33;13.00;99.90
17146;DHT22;8688;54.444;18.444;2022-10-16T00:31:03;13.00;99.90
17146;DHT22;8688;54.444;18.444;2022-10-16T00:33:30;13.00;99.90
17146;DHT22;8688;54.444;18.444;2022-10-16T00:35:58;13.00;99.90
17146;DHT22;8688;54.444;18.444;2022-10-16T00:38:25;13.10;99.90
17146;DHT22;8688;54.444;18.444;2022-10-16T00:40:53;13.10;99.90
17146;DHT22;8688;54.444;18.444;2022-10-16T00:43:38;13.10;99.90
17146;DHT22;8688;54.444;18.444;2022-10-16T00:46:13;13.10;99.90
17146;DHT22;8688;54.444;18.444;2022-10-16T00:48:45;13.10;99.90
17146;DHT22;8688;54.444;18.444;2022-10-16T00:51:14;13.10;99.90
17146;DHT22;8688;54.444;18.444;2022-10-16T00:53:43;13.10;99.90
17146;DHT22;8688;54.444;18.444;2022-10-16T00:56:11;13.10;99.90
17146;DHT22;8688;54.444;18.444;2022-10-16T00:58:40;13.20;99.90
17146;DHT22;8688;54.444;18.444;2022-10-16T01:01:07;13.10;99.90
17146;DHT22;8688;54.444;18.444;2022-10-16T01:03:36;13.10;99.90
17146;DHT22;8688;54.444;18.444;2022-10-16T01:06:21;13.20;99.90
17146;DHT22;8688;54.444;18.444;2022-10-16T01:09:06;13.20;99.90
17146;DHT22;8688;54.444;18.444;2022-10-16T01:11:44;13.20;99.90
17146;DHT22;8688;54.444;18.444;2022-10-16T01:14:20;13.20;99.90
17146;DHT22;8688;54.444;18.444;2022-10-16T01:16:53;13.20;99.90
17146;DHT22;8688;54.444;18.444;2022-10-16T01:19:32;13.20;99.90
17146;DHT22;8688;54.444;18.444;2022-10-16T01:22:04;13.20;99.90
17146;DHT22;8688;54.444;18.444;2022-10-16T01:24:38;13.20;99.90
17146;DHT22;8688;54.444;18.444;2022-10-16T01:27:12;13.20;99.90
17146;DHT22;8688;54.444;18.444;2022-10-16T01:29:48;13.30;99.90
17146;DHT22;8688;54.444;18.444;2022-10-16T01:32:22;13.30;99.90
17146;DHT22;8688;54.444;18.444;2022-10-16T01:34:52;13.30;99.90
17146;DHT22;8688;54.444;18.444;2022-10-16T01:37:27;13.30;99.90
17146;DHT22;8688;54.444;18.444;2022-10-16T01:39:59;13.30;99.90
17146;DHT22;8688;54.444;18.444;2022-10-16T01:42:31;13.30;99.90
17146;DHT22;8688;54.444;18.444;2022-10-16T01:45:01;13.40;99.90
17146;DHT22;8688;54.444;18.444;2022-10-16T01:47:32;13.30;99.90
17146;DHT22;8688;54.444;18.444;2022-10-16T01:50:02;13.40;99.90
17146;DHT22;8688;54.444;18.444;2022-10-16T01:52:33;13.40;99.90
17146;DHT22;8688;54.444;18.444;2022-10-16T01:55:05;13.40;99.90
17146;DHT22;8688;54.444;18.444;2022-10-16T01:57:37;13.40;99.90
17146;DHT22;8688;54.444;18.444;2022-10-16T02:00:10;13.40;99.90
17146;DHT22;8688;54.444;18.444;2022-10-16T02:02:40;13.50;99.90
17146;DHT22;8688;54.444;18.444;2022-10-16T02:05:12;13.50;99.90
17146;DHT22;8688;54.444;18.444;2022-10-16T02:07:42;13.50;99.90
17146;DHT22;8688;54.444;18.444;2022-10-16T02:10:10;13.50;99.90
17146;DHT22;8688;54.444;18.444;2022-10-16T02:12:42;13.50;99.90
17146;DHT22;8688;54.444;18.444;2022-10-16T02:15:11;13.50;99.90
17146;DHT22;8688;54.444;18.444;2022-10-16T02:17:39;13.40;99.90
17146;DHT22;8688;54.444;18.444;2022-10-16T02:20:06;13.40;99.90
17146;DHT22;8688;54.444;18.444;2022-10-16T02:22:36;13.30;99.90
17146;DHT22;8688;54.444;18.444;2022-10-16T02:25:08;13.30;99.90
17146;DHT22;8688;54.444;18.444;2022-10-16T02:27:43;13.20;99.90
17146;DHT22;8688;54.444;18.444;2022-10-16T02:30:15;13.10;99.90
17146;DHT22;8688;54.444;18.444;2022-10-16T02:32:48;13.10;99.90
17146;DHT22;8688;54.444;18.444;2022-10-16T02:35:18;13.10;99.90
17146;DHT22;8688;54.444;18.444;2022-10-16T02:37:46;13.10;99.90
17146;DHT22;8688;54.444;18.444;2022-10-16T02:40:15;13.00;99.90
17146;DHT22;8688;54.444;18.444;2022-10-16T02:42:49;13.00;99.90
17146;DHT22;8688;54.444;18.444;2022-10-16T02:45:17;13.00;99.90
17146;DHT22;8688;54.444;18.444;2022-10-16T02:47:44;13.00;99.90
17146;DHT22;8688;54.444;18.444;2022-10-16T02:50:11;13.00;99.90
17146;DHT22;8688;54.444;18.444;2022-10-16T02:52:39;13.10;99.90
17146;DHT22;8688;54.444;18.444;2022-10-16T02:55:07;13.10;99.90
17146;DHT22;8688;54.444;18.444;2022-10-16T02:57:34;13.10;99.90
17146;DHT22;8688;54.444;18.444;2022-10-16T03:00:05;13.00;99.90
17146;DHT22;8688;54.444;18.444;2022-10-16T03:02:33;13.00;99.90
17146;DHT22;8688;54.444;18.444;2022-10-16T03:05:01;13.00;99.90
17146;DHT22;8688;54.444;18.444;2022-10-16T03:07:29;13.00;99.90
17146;DHT22;8688;54.444;18.444;2022-10-16T03:09:56;13.00;99.90
17146;DHT22;8688;54.444;18.444;2022-10-16T03:12:26;13.00;99.90
17146;DHT22;8688;54.444;18.444;2022-10-16T03:14:53;13.00;99.90
17146;DHT22;8688;54.444;18.444;2022-10-16T03:17:22;13.00;99.90
17146;DHT22;8688;54.444;18.444;2022-10-16T03:19:49;13.10;99.90
17146;DHT22;8688;54.444;18.444;2022-10-16T03:22:17;13.10;99.90
17146;DHT22;8688;54.444;18.444;2022-10-16T03:24:44;13.10;99.90
17146;DHT22;8688;54.444;18.444;2022-10-16T03:27:12;13.10;99.90
17146;DHT22;8688;54.444;18.444;2022-10-16T03:29:39;13.10;99.90
17146;DHT22;8688;54.444;18.444;2022-10-16T03:32:07;13.10;99.90
17146;DHT22;8688;54.444;18.444;2022-10-16T03:34:36;13.20;99.90
17146;DHT22;8688;54.444;18.444;2022-10-16T03:37:03;13.20;99.90
17146;DHT22;8688;54.444;18.444;2022-10-16T03:39:31;13.20;99.90
17146;DHT22;8688;54.444;18.444;2022-10-16T03:41:58;13.30;99.90
17146;DHT22;8688;54.444;18.444;2022-10-16T03:44:26;13.30;99.90
17146;DHT22;8688;54.444;18.444;2022-10-16T03:46:53;13.30;99.90
17146;DHT22;8688;54.444;18.444;2022-10-16T03:49:20;13.30;99.90
17146;DHT22;8688;54.444;18.444;2022-10-16T03:51:49;13.30;99.90
17146;DHT22;8688;54.444;18.444;2022-10-16T03:54:16;13.30;99.90
17146;DHT22;8688;54.444;18.444;2022-10-16T03:56:44;13.40;99.90
17146;DHT22;8688;54.444;18.444;2022-10-16T03:59:11;13.40;99.90
17146;DHT22;8688;54.444;18.444;2022-10-16T04:01:38;13.40;99.90
17146;DHT22;8688;54.444;18.444;2022-10-16T04:04:06;13.40;99.90
17146;DHT22;8688;54.444;18.444;2022-10-16T04:06:34;13.40;99.90
17146;DHT22;8688;54.444;18.444;2022-10-16T04:09:03;13.40;99.90
17146;DHT22;8688;54.444;18.444;2022-10-16T04:11:30;13.50;99.90
17146;DHT22;8688;54.444;18.444;2022-10-16T04:13:57;13.50;99.90
17146;DHT22;8688;54.444;18.444;2022-10-16T04:16:25;13.50;99.90
17146;DHT22;8688;54.444;18.444;2022-10-16T04:18:52;13.50;99.90
17146;DHT22;8688;54.444;18.444;2022-10-16T04:21:19;13.50;99.90
17146;DHT22;8688;54.444;18.444;2022-10-16T04:23:47;13.50;99.90
17146;DHT22;8688;54.444;18.444;2022-10-16T04:26:16;13.50;99.90
17146;DHT22;8688;54.444;18.444;2022-10-16T04:28:44;13.50;99.90
17146;DHT22;8688;54.444;18.444;2022-10-16T04:31:11;13.50;99.90
17146;DHT22;8688;54.444;18.444;2022-10-16T04:33:39;13.60;99.90
17146;DHT22;8688;54.444;18.444;2022-10-16T04:36:09;13.60;99.90
17146;DHT22;8688;54.444;18.444;2022-10-16T04:38:37;13.60;99.90
17146;DHT22;8688;54.444;18.444;2022-10-16T04:41:05;13.60;99.90
17146;DHT22;8688;54.444;18.444;2022-10-16T04:43:34;13.60;99.90
17146;DHT22;8688;54.444;18.444;2022-10-16T04:46:02;13.60;99.90
17146;DHT22;8688;54.444;18.444;2022-10-16T04:48:30;13.60;99.90
17146;DHT22;8688;54.444;18.444;2022-10-16T04:50:57;13.60;99.90
17146;DHT22;8688;54.444;18.444;2022-10-16T04:53:25;13.70;99.90
17146;DHT22;8688;54.444;18.444;2022-10-16T04:55:52;13.70;99.90
17146;DHT22;8688;54.444;18.444;2022-10-16T04:58:20;13.70;99.90
17146;DHT22;8688;54.444;18.444;2022-10-16T05:00:49;13.60;99.90
17146;DHT22;8688;54.444;18.444;2022-10-16T05:03:16;13.60;99.90
17146;DHT22;8688;54.444;18.444;2022-10-16T05:05:44;13.60;99.90
17146;DHT22;8688;54.444;18.444;2022-10-16T05:08:12;13.60;99.90
17146;DHT22;8688;54.444;18.444;2022-10-16T05:10:41;13.60;99.90
17146;DHT22;8688;54.444;18.444;2022-10-16T05:13:09;13.70;99.90
17146;DHT22;8688;54.444;18.444;2022-10-16T05:15:36;13.70;99.90
17146;DHT22;8688;54.444;18.444;2022-10-16T05:18:06;13.70;99.90
17146;DHT22;8688;54.444;18.444;2022-10-16T05:20:33;13.70;99.90
17146;DHT22;8688;54.444;18.444;2022-10-16T05:23:00;13.70;99.90
17146;DHT22;8688;54.444;18.444;2022-10-16T05:25:28;13.70;99.90
17146;DHT22;8688;54.444;18.444;2022-10-16T05:27:55;13.70;99.90
17146;DHT22;8688;54.444;18.444;2022-10-16T05:30:23;13.70;99.90
17146;DHT22;8688;54.444;18.444;2022-10-16T05:32:51;13.70;99.90
17146;DHT22;8688;54.444;18.444;2022-10-16T05:35:20;13.80;99.90
17146;DHT22;8688;54.444;18.444;2022-10-16T05:37:48;13.80;99.90
17146;DHT22;8688;54.444;18.444;2022-10-16T05:40:15;13.80;99.90
17146;DHT22;8688;54.444;18.444;2022-10-16T05:42:43;13.80;99.90
17146;DHT22;8688;54.444;18.444;2022-10-16T05:45:11;13.80;99.90
17146;DHT22;8688;54.444;18.444;2022-10-16T05:47:38;13.80;99.90
17146;DHT22;8688;54.444;18.444;2022-10-16T05:50:06;13.80;99.90
17146;DHT22;8688;54.444;18.444;2022-10-16T05:52:35;13.80;99.90
17146;DHT22;8688;54.444;18.444;2022-10-16T05:55:03;13.80;99.90
17146;DHT22;8688;54.444;18.444;2022-10-16T05:57:31;13.80;99.90
17146;DHT22;8688;54.444;18.444;2022-10-16T05:59:58;13.80;99.90
17146;DHT22;8688;54.444;18.444;2022-10-16T06:02:26;13.80;99.90
17146;DHT22;8688;54.444;18.444;2022-10-16T06:04:54;13.80;99.90
17146;DHT22;8688;54.444;18.444;2022-10-16T06:07:21;13.80;99.90
17146;DHT22;8688;54.444;18.444;2022-10-16T06:09:52;13.80;99.90
17146;DHT22;8688;54.444;18.444;2022-10-16T06:12:20;13.80;99.90
17146;DHT22;8688;54.444;18.444;2022-10-16T06:14:47;13.80;99.90
17146;DHT22;8688;54.444;18.444;2022-10-16T06:17:23;13.80;99.90
17146;DHT22;8688;54.444;18.444;2022-10-16T06:19:51;13.70;99.90
17146;DHT22;8688;54.444;18.444;2022-10-16T06:22:18;13.70;99.90
17146;DHT22;8688;54.444;18.444;2022-10-16T06:24:46;13.70;99.90
17146;DHT22;8688;54.444;18.444;2022-10-16T06:27:14;13.70;99.90
17146;DHT22;8688;54.444;18.444;2022-10-16T06:29:42;13.60;99.90
17146;DHT22;8688;54.444;18.444;2022-10-16T06:32:10;13.60;99.90
17146;DHT22;8688;54.444;18.444;2022-10-16T06:34:38;13.60;99.90
17146;DHT22;8688;54.444;18.444;2022-10-16T06:37:06;13.60;99.90
17146;DHT22;8688;54.444;18.444;2022-10-16T06:39:34;13.60;99.90
17146;DHT22;8688;54.444;18.444;2022-10-16T06:42:01;13.60;99.90
17146;DHT22;8688;54.444;18.444;2022-10-16T06:44:30;13.60;99.90
17146;DHT22;8688;54.444;18.444;2022-10-16T06:46:58;13.60;99.90
17146;DHT22;8688;54.444;18.444;2022-10-16T06:49:25;13.70;99.90
17146;DHT22;8688;54.444;18.444;2022-10-16T06:51:54;13.60;99.90
17146;DHT22;8688;54.444;18.444;2022-10-16T06:54:21;13.60;99.90
17146;DHT22;8688;54.444;18.444;2022-10-16T06:56:49;13.60;99.90
17146;DHT22;8688;54.444;18.444;2022-10-16T06:59:19;13.60;99.90
17146;DHT22;8688;54.444;18.444;2022-10-16T07:01:48;13.70;99.90
17146;DHT22;8688;54.444;18.444;2022-10-16T07:04:16;13.70;99.90
17146;DHT22;8688;54.444;18.444;2022-10-16T07:06:43;13.70;99.90
17146;DHT22;8688;54.444;18.444;2022-10-16T07:09:11;13.70;99.90
17146;DHT22;8688;54.444;18.444;2022-10-16T07:11:39;13.80;99.90
17146;DHT22;8688;54.444;18.444;2022-10-16T07:14:15;13.80;99.90
17146;DHT22;8688;54.444;18.444;2022-10-16T07:16:43;13.80;99.90
17146;DHT22;8688;54.444;18.444;2022-10-16T07:19:12;13.80;99.90
17146;DHT22;8688;54.444;18.444;2022-10-16T07:21:41;13.80;99.90
17146;DHT22;8688;54.444;18.444;2022-10-16T07:24:12;13.80;99.90
17146;DHT22;8688;54.444;18.444;2022-10-16T07:26:41;13.80;99.90
17146;DHT22;8688;54.444;18.444;2022-10-16T07:29:13;13.80;99.90
17146;DHT22;8688;54.444;18.444;2022-10-16T07:31:41;13.80;99.90
17146;DHT22;8688;54.444;18.444;2022-10-16T07:34:11;13.80;99.90
17146;DHT22;8688;54.444;18.444;2022-10-16T07:36:38;13.90;99.90
17146;DHT22;8688;54.444;18.444;2022-10-16T07:39:06;13.90;99.90
17146;DHT22;8688;54.444;18.444;2022-10-16T07:41:34;14.00;99.90
17146;DHT22;8688;54.444;18.444;2022-10-16T07:44:03;14.00;99.90
17146;DHT22;8688;54.444;18.444;2022-10-16T07:46:30;14.00;99.90
17146;DHT22;8688;54.444;18.444;2022-10-16T07:48:59;14.00;99.90
17146;DHT22;8688;54.444;18.444;2022-10-16T07:51:28;14.00;99.90
17146;DHT22;8688;54.444;18.444;2022-10-16T07:53:55;14.00;99.90
17146;DHT22;8688;54.444;18.444;2022-10-16T07:56:23;14.10;99.90
17146;DHT22;8688;54.444;18.444;2022-10-16T07:58:51;14.10;99.90
17146;DHT22;8688;54.444;18.444;2022-10-16T08:01:19;14.10;99.90
17146;DHT22;8688;54.444;18.444;2022-10-16T08:03:48;14.10;99.90
17146;DHT22;8688;54.444;18.444;2022-10-16T08:06:16;14.10;99.90
17146;DHT22;8688;54.444;18.444;2022-10-16T08:08:45;14.20;99.90
17146;DHT22;8688;54.444;18.444;2022-10-16T08:11:13;14.20;99.90
17146;DHT22;8688;54.444;18.444;2022-10-16T08:13:41;14.10;99.90
17146;DHT22;8688;54.444;18.444;2022-10-16T08:16:09;14.20;99.90
17146;DHT22;8688;54.444;18.444;2022-10-16T08:18:38;14.10;99.90
17146;DHT22;8688;54.444;18.444;2022-10-16T08:21:07;14.10;99.90
17146;DHT22;8688;54.444;18.444;2022-10-16T08:23:34;14.10;99.90
17146;DHT22;8688;54.444;18.444;2022-10-16T08:26:06;14.10;99.90
17146;DHT22;8688;54.444;18.444;2022-10-16T08:28:35;14.20;99.90
17146;DHT22;8688;54.444;18.444;2022-10-16T08:31:07;14.20;99.90
17146;DHT22;8688;54.444;18.444;2022-10-16T08:33:35;14.20;99.90
17146;DHT22;8688;54.444;18.444;2022-10-16T08:36:03;14.20;99.90
17146;DHT22;8688;54.444;18.444;2022-10-16T08:38:31;14.20;99.90
17146;DHT22;8688;54.444;18.444;2022-10-16T08:41:22;14.20;99.90
17146;DHT22;8688;54.444;18.444;2022-10-16T08:44:15;14.20;99.90
17146;DHT22;8688;54.444;18.444;2022-10-16T08:46:53;14.20;99.90
17146;DHT22;8688;54.444;18.444;2022-10-16T08:49:22;14.30;99.90
17146;DHT22;8688;54.444;18.444;2022-10-16T08:51:51;14.30;99.90
17146;DHT22;8688;54.444;18.444;2022-10-16T08:54:28;14.40;99.90
17146;DHT22;8688;54.444;18.444;2022-10-16T08:57:04;14.40;99.90
17146;DHT22;8688;54.444;18.444;2022-10-16T08:59:35;14.40;99.90
17146;DHT22;8688;54.444;18.444;2022-10-16T09:02:20;14.40;99.90
17146;DHT22;8688;54.444;18.444;2022-10-16T09:05:21;14.40;99.90
17146;DHT22;8688;54.444;18.444;2022-10-16T09:07:59;14.50;99.90
17146;DHT22;8688;54.444;18.444;2022-10-16T09:10:37;14.50;99.90
17146;DHT22;8688;54.444;18.444;2022-10-16T09:13:17;14.50;99.90
17146;DHT22;8688;54.444;18.444;2022-10-16T09:15:49;14.60;99.90
17146;DHT22;8688;54.444;18.444;2022-10-16T09:18:23;14.50;99.90
17146;DHT22;8688;54.444;18.444;2022-10-16T09:20:56;14.60;99.90
17146;DHT22;8688;54.444;18.444;2022-10-16T09:23:27;14.60;99.90
17146;DHT22;8688;54.444;18.444;2022-10-16T09:25:56;14.60;99.90
17146;DHT22;8688;54.444;18.444;2022-10-16T09:28:26;14.60;99.90
17146;DHT22;8688;54.444;18.444;2022-10-16T09:30:54;14.50;99.90
17146;DHT22;8688;54.444;18.444;2022-10-16T09:33:24;14.50;99.90
17146;DHT22;8688;54.444;18.444;2022-10-16T09:35:54;14.50;99.90
17146;DHT22;8688;54.444;18.444;2022-10-16T09:38:26;14.50;99.90
17146;DHT22;8688;54.444;18.444;2022-10-16T09:40:56;14.50;99.90
17146;DHT22;8688;54.444;18.444;2022-10-16T09:43:28;14.50;99.90
17146;DHT22;8688;54.444;18.444;2022-10-16T09:46:00;14.50;99.90
17146;DHT22;8688;54.444;18.444;2022-10-16T09:48:33;14.50;99.90
17146;DHT22;8688;54.444;18.444;2022-10-16T09:51:04;14.50;99.90
17146;DHT22;8688;54.444;18.444;2022-10-16T09:53:43;14.50;99.90
17146;DHT22;8688;54.444;18.444;2022-10-16T09:56:12;14.50;99.90
17146;DHT22;8688;54.444;18.444;2022-10-16T09:58:52;14.50;99.90
17146;DHT22;8688;54.444;18.444;2022-10-16T10:01:20;14.50;99.90
17146;DHT22;8688;54.444;18.444;2022-10-16T10:03:48;14.50;99.90
17146;DHT22;8688;54.444;18.444;2022-10-16T10:06:23;14.50;99.90
17146;DHT22;8688;54.444;18.444;2022-10-16T10:08:56;14.60;99.90
17146;DHT22;8688;54.444;18.444;2022-10-16T10:11:52;14.60;99.90
17146;DHT22;8688;54.444;18.444;2022-10-16T10:14:39;14.60;99.90
17146;DHT22;8688;54.444;18.444;2022-10-16T10:17:15;14.60;99.90
17146;DHT22;8688;54.444;18.444;2022-10-16T10:19:48;14.60;99.90
17146;DHT22;8688;54.444;18.444;2022-10-16T10:22:40;14.60;99.90
17146;DHT22;8688;54.444;18.444;2022-10-16T10:28:22;14.60;99.90
17146;DHT22;8688;54.444;18.444;2022-10-16T10:30:59;14.60;99.90
17146;DHT22;8688;54.444;18.444;2022-10-16T10:33:38;14.60;99.90
17146;DHT22;8688;54.444;18.444;2022-10-16T10:36:20;14.60;99.90
17146;DHT22;8688;54.444;18.444;2022-10-16T10:38:51;14.60;99.90
17146;DHT22;8688;54.444;18.444;2022-10-16T10:41:56;14.60;99.90
17146;DHT22;8688;54.444;18.444;2022-10-16T10:47:26;14.60;99.90
17146;DHT22;8688;54.444;18.444;2022-10-16T10:50:02;14.70;99.90
17146;DHT22;8688;54.444;18.444;2022-10-16T10:52:43;14.70;99.90
17146;DHT22;8688;54.444;18.444;2022-10-16T10:55:23;14.90;99.90
17146;DHT22;8688;54.444;18.444;2022-10-16T11:00:49;15.10;99.90
17146;DHT22;8688;54.444;18.444;2022-10-16T11:03:32;15.30;99.90
17146;DHT22;8688;54.444;18.444;2022-10-16T11:06:04;15.40;99.90
17146;DHT22;8688;54.444;18.444;2022-10-16T11:08:36;15.50;99.90
17146;DHT22;8688;54.444;18.444;2022-10-16T11:11:09;15.60;99.90
17146;DHT22;8688;54.444;18.444;2022-10-16T11:13:42;15.70;99.90
17146;DHT22;8688;54.444;18.444;2022-10-16T11:16:15;15.80;99.90
17146;DHT22;8688;54.444;18.444;2022-10-16T11:18:51;15.90;99.90
17146;DHT22;8688;54.444;18.444;2022-10-16T11:21:23;15.90;99.90
17146;DHT22;8688;54.444;18.444;2022-10-16T11:23:55;16.10;99.90
17146;DHT22;8688;54.444;18.444;2022-10-16T11:26:27;16.20;99.90
17146;DHT22;8688;54.444;18.444;2022-10-16T11:28:56;16.30;99.90
17146;DHT22;8688;54.444;18.444;2022-10-16T11:31:29;16.40;99.90
17146;DHT22;8688;54.444;18.444;2022-10-16T11:34:06;16.40;99.90
17146;DHT22;8688;54.444;18.444;2022-10-16T11:36:40;16.40;99.90
17146;DHT22;8688;54.444;18.444;2022-10-16T11:39:18;16.50;99.90
17146;DHT22;8688;54.444;18.444;2022-10-16T11:41:49;16.50;99.90
17146;DHT22;8688;54.444;18.444;2022-10-16T11:44:26;16.60;99.90
17146;DHT22;8688;54.444;18.444;2022-10-16T11:47:04;16.60;99.90
17146;DHT22;8688;54.444;18.444;2022-10-16T11:49:36;16.50;99.90
17146;DHT22;8688;54.444;18.444;2022-10-16T11:52:10;16.50;99.90
17146;DHT22;8688;54.444;18.444;2022-10-16T11:54:43;16.70;99.90
17146;DHT22;8688;54.444;18.444;2022-10-16T11:57:15;16.70;99.90
17146;DHT22;8688;54.444;18.444;2022-10-16T11:59:48;16.70;99.90
17146;DHT22;8688;54.444;18.444;2022-10-16T12:02:40;16.70;99.90
17146;DHT22;8688;54.444;18.444;2022-10-16T12:05:22;16.70;99.90
17146;DHT22;8688;54.444;18.444;2022-10-16T12:07:59;16.80;99.90
17146;DHT22;8688;54.444;18.444;2022-10-16T12:10:29;16.80;99.90
17146;DHT22;8688;54.444;18.444;2022-10-16T12:13:03;16.80;99.90
17146;DHT22;8688;54.444;18.444;2022-10-16T12:15:32;16.80;99.90
17146;DHT22;8688;54.444;18.444;2022-10-16T12:18:00;16.70;99.90
17146;DHT22;8688;54.444;18.444;2022-10-16T12:20:31;16.50;99.90
17146;DHT22;8688;54.444;18.444;2022-10-16T12:23:00;16.40;99.90
17146;DHT22;8688;54.444;18.444;2022-10-16T12:25:30;16.40;99.90
17146;DHT22;8688;54.444;18.444;2022-10-16T12:28:01;16.50;99.90
17146;DHT22;8688;54.444;18.444;2022-10-16T12:30:31;16.60;99.90
17146;DHT22;8688;54.444;18.444;2022-10-16T12:33:01;16.70;99.90
17146;DHT22;8688;54.444;18.444;2022-10-16T12:35:34;16.70;99.90
17146;DHT22;8688;54.444;18.444;2022-10-16T12:38:16;16.80;99.90
17146;DHT22;8688;54.444;18.444;2022-10-16T12:40:45;17.00;99.90
17146;DHT22;8688;54.444;18.444;2022-10-16T12:43:26;17.00;99.90
17146;DHT22;8688;54.444;18.444;2022-10-16T12:46:03;17.00;99.90
17146;DHT22;8688;54.444;18.444;2022-10-16T12:48:31;16.90;99.90
17146;DHT22;8688;54.444;18.444;2022-10-16T12:51:12;17.00;99.90
17146;DHT22;8688;54.444;18.444;2022-10-16T12:53:39;17.10;99.90
17146;DHT22;8688;54.444;18.444;2022-10-16T12:56:13;17.30;99.90
17146;DHT22;8688;54.444;18.444;2022-10-16T12:58:56;17.30;99.90
17146;DHT22;8688;54.444;18.444;2022-10-16T13:01:42;17.20;99.90
17146;DHT22;8688;54.444;18.444;2022-10-16T13:04:38;17.10;99.90
17146;DHT22;8688;54.444;18.444;2022-10-16T13:07:24;17.00;99.90
17146;DHT22;8688;54.444;18.444;2022-10-16T13:10:04;17.00;99.90
17146;DHT22;8688;54.444;18.444;2022-10-16T13:12:58;16.90;99.90
17146;DHT22;8688;54.444;18.444;2022-10-16T13:15:42;16.90;99.90
17146;DHT22;8688;54.444;18.444;2022-10-16T13:18:19;16.90;99.90
17146;DHT22;8688;54.444;18.444;2022-10-16T13:21:00;17.00;99.90
17146;DHT22;8688;54.444;18.444;2022-10-16T13:23:38;16.90;99.90
17146;DHT22;8688;54.444;18.444;2022-10-16T13:26:17;16.80;99.90
17146;DHT22;8688;54.444;18.444;2022-10-16T13:28:48;16.80;99.90
17146;DHT22;8688;54.444;18.444;2022-10-16T13:31:20;16.70;99.90
17146;DHT22;8688;54.444;18.444;2022-10-16T13:33:51;16.60;99.90
17146;DHT22;8688;54.444;18.444;2022-10-16T13:36:23;16.50;99.90
17146;DHT22;8688;54.444;18.444;2022-10-16T13:39:06;16.40;99.90
17146;DHT22;8688;54.444;18.444;2022-10-16T13:41:34;16.40;99.90
17146;DHT22;8688;54.444;18.444;2022-10-16T13:44:02;16.30;99.90
17146;DHT22;8688;54.444;18.444;2022-10-16T13:46:29;16.20;99.90
17146;DHT22;8688;54.444;18.444;2022-10-16T13:49:01;16.20;99.90
17146;DHT22;8688;54.444;18.444;2022-10-16T13:51:29;16.20;99.90
17146;DHT22;8688;54.444;18.444;2022-10-16T13:53:58;16.20;99.90
17146;DHT22;8688;54.444;18.444;2022-10-16T13:56:29;16.20;99.90
17146;DHT22;8688;54.444;18.444;2022-10-16T13:59:00;16.20;99.90
17146;DHT22;8688;54.444;18.444;2022-10-16T14:01:29;16.30;99.90
17146;DHT22;8688;54.444;18.444;2022-10-16T14:04:05;16.30;99.90
17146;DHT22;8688;54.444;18.444;2022-10-16T14:06:35;16.20;99.90
17146;DHT22;8688;54.444;18.444;2022-10-16T14:09:06;16.30;99.90
17146;DHT22;8688;54.444;18.444;2022-10-16T14:11:44;16.30;99.90
17146;DHT22;8688;54.444;18.444;2022-10-16T14:14:13;16.20;99.90
17146;DHT22;8688;54.444;18.444;2022-10-16T14:16:42;16.20;99.90
17146;DHT22;8688;54.444;18.444;2022-10-16T14:19:18;16.20;99.90
17146;DHT22;8688;54.444;18.444;2022-10-16T14:21:45;16.30;99.90
17146;DHT22;8688;54.444;18.444;2022-10-16T14:24:19;16.30;99.90
17146;DHT22;8688;54.444;18.444;2022-10-16T14:26:51;16.40;99.90
17146;DHT22;8688;54.444;18.444;2022-10-16T14:29:21;16.30;99.90
17146;DHT22;8688;54.444;18.444;2022-10-16T14:31:55;16.30;99.90
17146;DHT22;8688;54.444;18.444;2022-10-16T14:34:28;16.20;99.90
17146;DHT22;8688;54.444;18.444;2022-10-16T14:36:57;16.20;99.90
17146;DHT22;8688;54.444;18.444;2022-10-16T14:39:26;16.10;99.90
17146;DHT22;8688;54.444;18.444;2022-10-16T14:41:58;16.10;99.90
17146;DHT22;8688;54.444;18.444;2022-10-16T14:44:30;16.00;99.90
17146;DHT22;8688;54.444;18.444;2022-10-16T14:47:06;16.00;99.90
17146;DHT22;8688;54.444;18.444;2022-10-16T14:49:34;15.90;99.90
17146;DHT22;8688;54.444;18.444;2022-10-16T14:52:04;15.80;99.90
17146;DHT22;8688;54.444;18.444;2022-10-16T14:54:32;15.70;99.90
17146;DHT22;8688;54.444;18.444;2022-10-16T14:57:01;15.70;99.90
17146;DHT22;8688;54.444;18.444;2022-10-16T14:59:32;15.70;99.90
17146;DHT22;8688;54.444;18.444;2022-10-16T15:02:01;15.70;99.90
17146;DHT22;8688;54.444;18.444;2022-10-16T15:04:33;15.60;99.90
17146;DHT22;8688;54.444;18.444;2022-10-16T15:07:03;15.60;99.90
17146;DHT22;8688;54.444;18.444;2022-10-16T15:09:32;15.50;99.90
17146;DHT22;8688;54.444;18.444;2022-10-16T15:12:02;15.40;99.90
17146;DHT22;8688;54.444;18.444;2022-10-16T15:14:30;15.30;99.90
17146;DHT22;8688;54.444;18.444;2022-10-16T15:16:57;15.20;99.90
17146;DHT22;8688;54.444;18.444;2022-10-16T15:19:25;15.10;99.90
17146;DHT22;8688;54.444;18.444;2022-10-16T15:21:52;15.10;99.90
17146;DHT22;8688;54.444;18.444;2022-10-16T15:24:20;15.10;99.90
17146;DHT22;8688;54.444;18.444;2022-10-16T15:26:47;15.10;99.90
17146;DHT22;8688;54.444;18.444;2022-10-16T15:29:16;15.10;99.90
17146;DHT22;8688;54.444;18.444;2022-10-16T15:31:43;15.00;99.90
17146;DHT22;8688;54.444;18.444;2022-10-16T15:34:13;15.00;99.90
17146;DHT22;8688;54.444;18.444;2022-10-16T15:36:41;15.00;99.90
17146;DHT22;8688;54.444;18.444;2022-10-16T15:39:12;14.90;99.90
17146;DHT22;8688;54.444;18.444;2022-10-16T15:41:40;14.90;99.90
17146;DHT22;8688;54.444;18.444;2022-10-16T15:44:08;14.80;99.90
17146;DHT22;8688;54.444;18.444;2022-10-16T15:46:37;14.80;99.90
17146;DHT22;8688;54.444;18.444;2022-10-16T15:49:04;14.80;99.90
17146;DHT22;8688;54.444;18.444;2022-10-16T15:51:33;14.70;99.90
17146;DHT22;8688;54.444;18.444;2022-10-16T15:54:04;14.70;99.90
17146;DHT22;8688;54.444;18.444;2022-10-16T15:56:32;14.60;99.90
17146;DHT22;8688;54.444;18.444;2022-10-16T15:58:59;14.50;99.90
17146;DHT22;8688;54.444;18.444;2022-10-16T16:01:27;14.40;99.90
17146;DHT22;8688;54.444;18.444;2022-10-16T16:03:57;14.30;99.90